createdAt,value
2017-08-19T00:00:37.680Z,100695.64
2017-08-19T00:03:04.063Z,100696.06
2017-08-19T00:05:30.480Z,100698.92
2017-08-19T00:07:57.275Z,100699.56
2017-08-19T00:10:23.741Z,100700.20
2017-08-19T00:12:50.389Z,100705.87
2017-08-19T00:15:17.329Z,100707.27
2017-08-19T00:17:43.800Z,100708.88
2017-08-19T00:20:10.194Z,100711.99
2017-08-19T00:22:36.581Z,100717.22
2017-08-19T00:25:03.042Z,100716.00
2017-08-19T00:27:30.142Z,100723.48
2017-08-19T00:29:56.555Z,100715.41
2017-08-19T00:32:22.982Z,100720.55
2017-08-19T00:34:49.374Z,100724.05
2017-08-19T00:37:15.790Z,100715.89
2017-08-19T00:39:42.218Z,100721.92
2017-08-19T00:42:08.687Z,100715.40
2017-08-19T00:44:35.176Z,100725.95
2017-08-19T00:47:01.580Z,100723.50
2017-08-19T00:49:28.043Z,100726.73
2017-08-19T00:51:54.437Z,100724.84
2017-08-19T00:54:20.865Z,100724.37
2017-08-19T00:56:47.279Z,100724.19
2017-08-19T00:59:13.693Z,100728.15
2017-08-19T01:01:40.134Z,100726.62
2017-08-19T01:04:06.583Z,100731.78
2017-08-19T01:06:33.055Z,100729.98
2017-08-19T01:08:59.521Z,100728.36
2017-08-19T01:11:25.939Z,100728.38
2017-08-19T01:13:52.329Z,100726.55
2017-08-19T01:16:18.760Z,100730.92
2017-08-19T01:18:45.140Z,100730.27
2017-08-19T01:21:11.581Z,100736.52
2017-08-19T01:23:38.012Z,100737.50
2017-08-19T01:39:37.339Z,100738.64
2017-08-19T01:42:03.714Z,100743.24
2017-08-19T01:44:30.091Z,100735.23
2017-08-19T01:46:56.513Z,100738.15
2017-08-19T01:49:22.889Z,100740.70
2017-08-19T01:51:49.304Z,100737.81
2017-08-19T01:54:15.697Z,100736.53
2017-08-19T01:56:42.106Z,100732.30
2017-08-19T01:59:08.481Z,100738.80
2017-08-19T02:01:34.890Z,100732.48
2017-08-19T02:04:01.275Z,100734.45
2017-08-19T02:06:27.697Z,100735.47
2017-08-19T02:08:54.074Z,100735.54
2017-08-19T02:11:20.456Z,100736.88
2017-08-19T02:13:46.871Z,100739.94
2017-08-19T02:16:13.275Z,100740.20
2017-08-19T02:18:39.675Z,100734.22
2017-08-19T02:21:06.079Z,100740.41
2017-08-19T02:23:32.471Z,100734.70
2017-08-19T02:25:58.872Z,100733.44
2017-08-19T02:28:25.287Z,100739.74
2017-08-19T02:30:51.695Z,100734.73
2017-08-19T02:33:18.099Z,100734.65
2017-08-19T02:35:44.478Z,100728.22
2017-08-19T02:38:10.852Z,100727.76
2017-08-19T02:40:37.247Z,100729.41
2017-08-19T02:43:03.672Z,100732.85
2017-08-19T02:45:30.061Z,100735.59
2017-08-19T02:47:56.481Z,100729.79
2017-08-19T02:50:22.904Z,100724.78
2017-08-19T02:52:49.293Z,100726.82
2017-08-19T02:55:15.689Z,100737.83
2017-08-19T02:57:42.066Z,100733.64
2017-08-19T03:00:08.464Z,100734.97
2017-08-19T03:02:34.881Z,100735.36
2017-08-19T03:05:01.314Z,100737.63
2017-08-19T03:07:27.685Z,100740.84
2017-08-19T03:09:54.079Z,100747.03
2017-08-19T03:12:20.444Z,100747.27
2017-08-19T03:14:46.841Z,100748.41
2017-08-19T03:17:13.310Z,100745.73
2017-08-19T03:19:39.699Z,100742.69
2017-08-19T03:22:06.076Z,100735.70
2017-08-19T03:24:32.488Z,100741.84
2017-08-19T03:26:58.889Z,100739.23
2017-08-19T03:29:25.316Z,100740.95
2017-08-19T03:31:51.682Z,100742.47
2017-08-19T03:34:18.055Z,100746.63
2017-08-19T03:36:44.430Z,100741.31
2017-08-19T03:39:10.814Z,100744.86
2017-08-19T03:41:37.189Z,100746.48
2017-08-19T03:44:03.618Z,100748.31
2017-08-19T03:46:30.008Z,100745.02
2017-08-19T03:48:56.390Z,100748.35
2017-08-19T03:51:22.759Z,100745.61
2017-08-19T03:53:49.157Z,100750.48
2017-08-19T03:56:15.534Z,100751.73
2017-08-19T03:58:41.926Z,100748.86
2017-08-19T04:01:08.347Z,100739.85
2017-08-19T04:03:34.822Z,100749.06
2017-08-19T04:06:01.241Z,100752.59
2017-08-19T04:08:27.628Z,100758.26
2017-08-19T04:10:54.009Z,100756.15
2017-08-19T04:13:20.403Z,100756.77
2017-08-19T04:15:46.810Z,100760.83
2017-08-19T04:18:13.191Z,100756.61
2017-08-19T04:20:39.569Z,100753.84
2017-08-19T04:23:05.973Z,100759.70
2017-08-19T04:25:32.374Z,100758.70
2017-08-19T04:27:58.759Z,100756.30
2017-08-19T04:30:25.172Z,100762.27
2017-08-19T04:32:51.603Z,100755.45
2017-08-19T04:35:17.998Z,100756.20
2017-08-19T04:37:44.384Z,100759.34
2017-08-19T04:40:10.831Z,100765.63
2017-08-19T04:42:37.253Z,100768.77
2017-08-19T04:45:04.715Z,100767.59
2017-08-19T04:47:31.112Z,100769.50
2017-08-19T04:49:57.483Z,100771.52
2017-08-19T04:52:23.868Z,100768.27
2017-08-19T04:54:50.278Z,100770.73
2017-08-19T04:57:16.678Z,100773.32
2017-08-19T04:59:43.099Z,100779.31
2017-08-19T05:02:09.501Z,100776.09
2017-08-19T05:04:35.906Z,100778.92
2017-08-19T05:07:02.281Z,100781.95
2017-08-19T05:09:28.703Z,100783.44
2017-08-19T05:11:55.100Z,100782.39
2017-08-19T05:14:21.508Z,100784.94
2017-08-19T05:16:47.969Z,100774.94
2017-08-19T05:19:14.368Z,100776.56
2017-08-19T05:21:40.773Z,100782.00
2017-08-19T05:24:07.169Z,100778.87
2017-08-19T05:26:33.564Z,100781.06
2017-08-19T05:29:00.035Z,100789.89
2017-08-19T05:31:26.440Z,100790.95
2017-08-19T05:33:52.892Z,100795.64
2017-08-19T05:36:19.317Z,100795.73
2017-08-19T05:38:45.705Z,100809.58
2017-08-19T05:41:12.104Z,100808.36
2017-08-19T05:43:38.499Z,100797.22
2017-08-19T05:46:04.863Z,100801.64
2017-08-19T05:48:31.260Z,100789.16
2017-08-19T05:50:57.752Z,100806.05
2017-08-19T05:53:24.150Z,100799.95
2017-08-19T05:55:50.551Z,100799.72
2017-08-19T05:58:16.990Z,100820.14
2017-08-19T06:00:43.396Z,100816.02
2017-08-19T06:03:09.810Z,100806.87
2017-08-19T06:05:36.272Z,100818.69
2017-08-19T06:08:02.712Z,100813.25
2017-08-19T06:10:29.104Z,100811.17
2017-08-19T06:12:55.481Z,100805.63
2017-08-19T06:15:21.878Z,100801.94
2017-08-19T06:17:48.280Z,100808.27
2017-08-19T06:20:14.680Z,100800.66
2017-08-19T06:22:41.097Z,100799.63
2017-08-19T06:25:07.488Z,100802.19
2017-08-19T06:27:34.523Z,100790.20
2017-08-19T06:30:01.276Z,100799.31
2017-08-19T06:32:33.865Z,100794.09
2017-08-19T06:35:05.817Z,100801.38
2017-08-19T06:37:38.755Z,100800.80
2017-08-19T06:40:05.319Z,100799.46
2017-08-19T06:42:34.957Z,100804.97
2017-08-19T06:45:01.385Z,100806.02
2017-08-19T06:47:27.898Z,100807.93
2017-08-19T06:50:00.778Z,100808.36
2017-08-19T06:52:27.223Z,100814.29
2017-08-19T06:54:53.618Z,100802.05
2017-08-19T06:57:20.172Z,100811.05
2017-08-19T06:59:51.846Z,100808.50
2017-08-19T07:02:18.326Z,100815.09
2017-08-19T07:04:44.852Z,100794.84
2017-08-19T07:07:11.374Z,100810.88
2017-08-19T07:09:43.403Z,100812.13
2017-08-19T07:12:10.239Z,100808.73
2017-08-19T07:14:36.716Z,100820.53
2017-08-19T07:17:03.179Z,100820.59
2017-08-19T07:19:30.237Z,100821.86
2017-08-19T07:21:57.812Z,100815.82
2017-08-19T07:24:30.574Z,100821.66
2017-08-19T07:26:57.822Z,100822.83
2017-08-19T07:29:24.496Z,100816.44
2017-08-19T07:31:50.908Z,100814.44
2017-08-19T07:34:22.740Z,100814.43
2017-08-19T07:36:49.103Z,100814.52
2017-08-19T07:39:21.407Z,100821.16
2017-08-19T07:41:48.660Z,100803.88
2017-08-19T07:44:15.286Z,100803.95
2017-08-19T07:46:41.762Z,100810.36
2017-08-19T07:49:08.354Z,100815.11
2017-08-19T07:51:34.723Z,100819.30
2017-08-19T07:54:01.228Z,100812.20
2017-08-19T07:56:33.902Z,100819.90
2017-08-19T07:59:05.478Z,100830.59
2017-08-19T08:01:37.408Z,100823.25
2017-08-19T08:04:08.944Z,100831.16
2017-08-19T08:06:35.450Z,100835.36
2017-08-19T08:09:07.918Z,100836.87
2017-08-19T08:11:41.892Z,100841.95
2017-08-19T08:14:08.357Z,100841.43
2017-08-19T08:16:35.198Z,100832.70
2017-08-19T08:19:07.260Z,100845.50
2017-08-19T08:21:34.091Z,100845.16
2017-08-19T08:24:00.797Z,100846.99
2017-08-19T08:26:27.509Z,100852.20
2017-08-19T08:28:54.096Z,100851.95
2017-08-19T08:31:26.007Z,100851.45
2017-08-19T08:33:52.477Z,100853.30
2017-08-19T08:36:20.525Z,100858.00
2017-08-19T08:38:47.135Z,100865.75
2017-08-19T08:41:13.831Z,100864.25
2017-08-19T08:43:45.371Z,100871.07
2017-08-19T08:46:15.029Z,100877.10
2017-08-19T08:48:46.572Z,100871.37
2017-08-19T08:51:13.212Z,100870.33
2017-08-19T08:53:45.165Z,100869.91
2017-08-19T08:56:12.642Z,100869.24
2017-08-19T08:58:39.102Z,100875.16
2017-08-19T09:01:05.525Z,100869.02
2017-08-19T09:03:32.030Z,100872.38
2017-08-19T09:06:01.273Z,100863.77
2017-08-19T09:08:27.654Z,100859.95
2017-08-19T09:10:59.235Z,100868.61
2017-08-19T09:13:30.967Z,100867.25
2017-08-19T09:15:57.338Z,100857.48
2017-08-19T09:18:23.972Z,100862.80
2017-08-19T09:20:55.762Z,100868.63
2017-08-19T09:23:23.122Z,100863.05
2017-08-19T09:25:55.126Z,100868.09
2017-08-19T09:28:26.640Z,100870.90
2017-08-19T09:31:00.933Z,100863.00
2017-08-19T09:33:27.573Z,100856.52
2017-08-19T09:35:54.185Z,100854.22
2017-08-19T09:38:20.998Z,100869.75
2017-08-19T09:40:47.877Z,100866.00
2017-08-19T09:43:17.424Z,100873.52
2017-08-19T09:45:49.365Z,100874.08
2017-08-19T09:48:15.726Z,100870.67
2017-08-19T09:50:50.463Z,100875.51
2017-08-19T09:53:17.001Z,100872.22
2017-08-19T09:55:44.835Z,100889.59
2017-08-19T09:58:13.969Z,100885.69
2017-08-19T10:00:43.475Z,100880.09
2017-08-19T10:03:15.213Z,100896.34
2017-08-19T10:05:44.764Z,100888.70
2017-08-19T10:08:23.565Z,100886.30
2017-08-19T10:11:13.528Z,100901.75
2017-08-19T10:13:39.965Z,100897.04
2017-08-19T10:16:06.513Z,100901.44
2017-08-19T10:18:32.979Z,100899.88
2017-08-19T10:20:59.614Z,100895.45
2017-08-19T10:23:26.501Z,100900.41
2017-08-19T10:25:53.217Z,100907.75
2017-08-19T10:28:22.621Z,100914.64
2017-08-19T10:30:49.073Z,100911.43
2017-08-19T10:33:20.640Z,100908.30
2017-08-19T10:35:47.188Z,100901.16
2017-08-19T10:38:13.722Z,100908.94
2017-08-19T10:40:40.287Z,100913.30
2017-08-19T10:43:06.891Z,100919.06
2017-08-19T10:45:38.560Z,100913.11
2017-08-19T10:48:04.964Z,100911.11
2017-08-19T10:50:32.385Z,100905.95
2017-08-19T10:53:04.050Z,100905.16
2017-08-19T10:55:30.486Z,100897.87
2017-08-19T10:57:57.336Z,100898.76
2017-08-19T11:00:23.729Z,100893.31
2017-08-19T11:02:55.367Z,100898.04
2017-08-19T11:05:26.871Z,100896.69
2017-08-19T11:07:53.465Z,100892.30
2017-08-19T11:10:19.929Z,100894.81
2017-08-19T11:12:46.741Z,100898.21
2017-08-19T11:15:18.330Z,100904.28
2017-08-19T11:17:50.021Z,100904.55
2017-08-19T11:20:17.329Z,100912.95
2017-08-19T11:22:49.364Z,100905.91
2017-08-19T11:25:21.156Z,100910.44
2017-08-19T11:27:47.991Z,100913.50
2017-08-19T11:30:14.696Z,100918.62
2017-08-19T11:32:41.077Z,100915.14
2017-08-19T11:35:07.474Z,100919.22
2017-08-19T11:37:34.288Z,100925.08
2017-08-19T11:40:00.893Z,100929.03
2017-08-19T11:42:27.458Z,100920.28
2017-08-19T11:45:02.049Z,100918.73
2017-08-19T11:47:28.594Z,100919.91
2017-08-19T11:50:02.416Z,100928.21
2017-08-19T11:52:30.263Z,100927.56
2017-08-19T11:54:57.071Z,100922.58
2017-08-19T11:57:27.025Z,100929.16
2017-08-19T11:59:58.772Z,100932.65
2017-08-19T12:02:25.540Z,100931.08
2017-08-19T12:04:57.170Z,100932.34
2017-08-19T12:07:23.705Z,100934.28
2017-08-19T12:09:50.571Z,100936.64
2017-08-19T12:12:22.342Z,100930.95
2017-08-19T12:14:48.857Z,100935.11
2017-08-19T12:17:21.296Z,100945.09
2017-08-19T12:19:54.079Z,100944.97
2017-08-19T12:22:26.670Z,100943.33
2017-08-19T12:24:53.947Z,100944.55
2017-08-19T12:27:24.296Z,100947.36
2017-08-19T12:29:56.819Z,100941.28
2017-08-19T12:32:23.259Z,100946.80
2017-08-19T12:34:50.159Z,100951.48
2017-08-19T12:37:22.152Z,100948.52
2017-08-19T12:39:54.115Z,100950.33
2017-08-19T12:42:26.088Z,100955.36
2017-08-19T12:44:52.853Z,100956.52
2017-08-19T12:47:24.502Z,100961.48
2017-08-19T12:49:54.206Z,100953.51
2017-08-19T12:52:20.756Z,100959.80
2017-08-19T12:54:47.318Z,100961.99
2017-08-19T12:57:13.943Z,100957.39
2017-08-19T12:59:43.423Z,100962.96
2017-08-19T13:02:11.721Z,100965.89
2017-08-19T13:04:38.351Z,100961.87
2017-08-19T13:07:10.460Z,100961.08
2017-08-19T13:09:36.861Z,100958.29
2017-08-19T13:12:08.400Z,100967.30
2017-08-19T13:14:34.913Z,100961.99
2017-08-19T13:17:02.540Z,100961.03
2017-08-19T13:19:36.747Z,100961.27
2017-08-19T13:22:06.354Z,100960.45
2017-08-19T13:24:40.154Z,100961.28
2017-08-19T13:27:06.870Z,100967.62
2017-08-19T13:29:33.697Z,100965.70
2017-08-19T13:32:00.098Z,100967.53
2017-08-19T13:34:27.736Z,100969.69
2017-08-19T13:36:55.139Z,100967.25
2017-08-19T13:39:26.787Z,100969.27
2017-08-19T13:41:53.789Z,100969.13
2017-08-19T13:44:21.533Z,100974.73
2017-08-19T13:46:47.931Z,100967.41
2017-08-19T13:49:15.046Z,100975.13
2017-08-19T13:51:43.271Z,100966.61
2017-08-19T13:54:10.088Z,100969.06
2017-08-19T13:56:36.536Z,100974.19
2017-08-19T13:59:02.971Z,100977.06
2017-08-19T14:01:29.582Z,100974.72
2017-08-19T14:04:01.709Z,100976.78
2017-08-19T14:06:28.593Z,100972.37
2017-08-19T14:08:55.200Z,100972.04
2017-08-19T14:11:26.723Z,100967.98
2017-08-19T14:13:59.168Z,100967.41
2017-08-19T14:16:25.672Z,100970.46
2017-08-19T14:18:57.561Z,100973.94
2017-08-19T14:21:23.966Z,100980.04
2017-08-19T14:23:50.402Z,100969.23
2017-08-19T14:26:18.201Z,100976.64
2017-08-19T14:28:50.006Z,100974.16
2017-08-19T14:31:17.432Z,100981.87
2017-08-19T14:33:44.393Z,100984.59
2017-08-19T14:36:16.877Z,100985.16
2017-08-19T14:38:54.683Z,100992.89
2017-08-19T14:41:21.235Z,100990.06
2017-08-19T14:43:48.582Z,101003.91
2017-08-19T14:46:15.995Z,101009.56
2017-08-19T14:48:42.838Z,101009.48
2017-08-19T14:51:13.080Z,101021.17
2017-08-19T14:53:39.667Z,101018.85
2017-08-19T14:56:06.376Z,101016.36
2017-08-19T14:58:33.237Z,101026.64
2017-08-19T15:00:59.925Z,101022.29
2017-08-19T15:03:27.676Z,101021.55
2017-08-19T15:05:55.883Z,101021.48
2017-08-19T15:08:22.290Z,101031.76
2017-08-19T15:10:50.011Z,101036.55
2017-08-19T15:13:21.892Z,101032.62
2017-08-19T15:15:48.762Z,101035.34
2017-08-19T15:18:15.595Z,101031.67
2017-08-19T15:20:47.402Z,101035.49
2017-08-19T15:23:14.341Z,101037.89
2017-08-19T15:25:40.829Z,101041.30
2017-08-19T15:28:07.819Z,101047.75
2017-08-19T15:30:34.342Z,101064.53
2017-08-19T15:33:06.457Z,101078.28
2017-08-19T15:35:40.207Z,101078.98
2017-08-19T15:38:11.927Z,101083.02
2017-08-19T15:40:44.069Z,101090.36
2017-08-19T15:43:16.528Z,101105.69
2017-08-19T15:45:48.770Z,101116.47
2017-08-19T15:48:20.345Z,101113.34
2017-08-19T15:50:50.248Z,101106.06
2017-08-19T15:53:16.709Z,101105.45
2017-08-19T15:55:45.455Z,101107.41
2017-08-19T15:58:13.111Z,101101.37
2017-08-19T16:00:45.661Z,101097.48
2017-08-19T16:03:12.043Z,101101.50
2017-08-19T16:05:38.431Z,101098.22
2017-08-19T16:08:10.826Z,101089.62
2017-08-19T16:10:43.835Z,101095.55
2017-08-19T16:13:15.762Z,101087.39
2017-08-19T16:15:43.927Z,101090.49
2017-08-19T16:18:10.551Z,101091.40
2017-08-19T16:20:38.050Z,101087.56
2017-08-19T16:23:05.605Z,101084.10
2017-08-19T16:25:32.105Z,101081.73
2017-08-19T16:27:59.047Z,101083.20
2017-08-19T16:30:25.947Z,101084.79
2017-08-19T16:32:52.632Z,101078.63
2017-08-19T16:35:19.501Z,101073.14
2017-08-19T16:37:46.219Z,101073.14
2017-08-19T16:40:12.942Z,101074.38
2017-08-19T16:42:39.357Z,101072.62
2017-08-19T16:45:11.548Z,101074.08
2017-08-19T16:47:37.952Z,101071.20
2017-08-19T16:50:07.983Z,101071.75
2017-08-19T16:52:39.655Z,101069.12
2017-08-19T16:55:06.259Z,101066.27
2017-08-19T16:57:38.466Z,101069.81
2017-08-19T17:00:05.651Z,101070.06
2017-08-19T17:02:32.216Z,101070.84
2017-08-19T17:04:58.672Z,101076.76
2017-08-19T17:07:25.549Z,101078.75
2017-08-19T17:09:55.353Z,101079.95
2017-08-19T17:12:24.505Z,101084.53
2017-08-19T17:14:51.923Z,101090.67
2017-08-19T17:17:18.656Z,101090.14
2017-08-19T17:19:45.487Z,101089.16
2017-08-19T17:22:20.717Z,101086.73
2017-08-19T17:24:54.277Z,101093.30
2017-08-19T17:27:27.777Z,101093.47
2017-08-19T17:29:54.473Z,101091.88
2017-08-19T17:32:21.278Z,101095.16
2017-08-19T17:34:47.898Z,101095.53
2017-08-19T17:37:19.868Z,101099.72
2017-08-19T17:39:46.413Z,101099.46
2017-08-19T17:42:18.081Z,101090.73
2017-08-19T17:44:44.515Z,101086.47
2017-08-19T17:47:17.006Z,101097.73
2017-08-19T17:49:45.945Z,101094.27
2017-08-19T17:52:13.279Z,101094.75
2017-08-19T17:54:40.158Z,101092.33
2017-08-19T17:57:07.484Z,101095.52
2017-08-19T17:59:33.870Z,101098.08
2017-08-19T18:02:00.767Z,101103.08
2017-08-19T18:04:32.538Z,101106.53
2017-08-19T18:06:59.350Z,101113.52
2017-08-19T18:09:28.890Z,101117.32
2017-08-19T18:12:01.005Z,101121.45
2017-08-19T18:14:27.784Z,101125.67
2017-08-19T18:16:54.288Z,101127.86
2017-08-19T18:19:23.688Z,101122.23
2017-08-19T18:21:50.468Z,101118.96
2017-08-19T18:24:17.135Z,101117.87
2017-08-19T18:26:51.017Z,101124.92
2017-08-19T18:29:21.320Z,101130.56
2017-08-19T18:31:48.248Z,101131.55
2017-08-19T18:34:14.645Z,101134.33
2017-08-19T18:36:42.020Z,101137.12
2017-08-19T18:39:13.665Z,101144.91
2017-08-19T18:41:45.030Z,101149.61
2017-08-19T18:44:12.426Z,101150.77
2017-08-19T18:46:39.512Z,101150.23
2017-08-19T18:49:08.992Z,101153.74
2017-08-19T18:51:35.453Z,101154.31
2017-08-19T18:54:07.256Z,101156.09
2017-08-19T18:56:34.353Z,101156.87
2017-08-19T18:59:00.708Z,101156.90
2017-08-19T19:01:27.436Z,101155.20
2017-08-19T19:03:53.886Z,101159.19
2017-08-19T19:06:24.075Z,101158.61
2017-08-19T19:08:52.643Z,101161.33
2017-08-19T19:11:19.303Z,101158.91
2017-08-19T19:13:50.425Z,101169.36
2017-08-19T19:16:18.509Z,101168.77
2017-08-19T19:18:45.048Z,101170.14
2017-08-19T19:21:14.549Z,101168.33
2017-08-19T19:23:41.161Z,101170.69
2017-08-19T19:26:08.204Z,101169.98
2017-08-19T19:28:37.876Z,101170.19
2017-08-19T19:31:04.657Z,101176.63
2017-08-19T19:33:31.144Z,101181.55
2017-08-19T19:35:57.578Z,101185.25
2017-08-19T19:38:24.456Z,101180.78
2017-08-19T19:40:51.135Z,101182.86
2017-08-19T19:43:17.623Z,101187.77
2017-08-19T19:45:49.813Z,101186.33
2017-08-19T19:48:16.289Z,101191.23
2017-08-19T19:50:47.701Z,101195.47
2017-08-19T19:53:16.374Z,101199.48
2017-08-19T19:55:43.480Z,101213.02
2017-08-19T19:58:15.434Z,101215.63
2017-08-19T20:00:41.837Z,101211.50
2017-08-19T20:03:09.966Z,101220.09
2017-08-19T20:05:36.656Z,101213.81
2017-08-19T20:08:08.187Z,101217.30
2017-08-19T20:10:35.608Z,101221.91
2017-08-19T20:13:07.554Z,101227.81
2017-08-19T20:15:34.156Z,101222.16
2017-08-19T20:18:05.673Z,101234.45
2017-08-19T20:20:37.470Z,101232.84
2017-08-19T20:23:04.493Z,101230.12
2017-08-19T20:25:33.999Z,101232.91
2017-08-19T20:28:04.586Z,101232.16
2017-08-19T20:30:31.148Z,101227.87
2017-08-19T20:33:00.344Z,101232.94
2017-08-19T20:35:26.790Z,101238.62
2017-08-19T20:37:53.149Z,101232.03
2017-08-19T20:40:19.922Z,101233.02
2017-08-19T20:42:52.334Z,101226.37
2017-08-19T20:45:19.145Z,101224.98
2017-08-19T20:47:46.048Z,101230.70
2017-08-19T20:50:17.945Z,101233.23
2017-08-19T20:52:44.361Z,101234.06
2017-08-19T20:55:14.804Z,101230.61
2017-08-19T20:57:41.202Z,101234.39
2017-08-19T21:00:19.726Z,101231.94
2017-08-19T21:02:51.691Z,101228.80
2017-08-19T21:05:18.182Z,101226.43
2017-08-19T21:07:49.868Z,101227.45
2017-08-19T21:10:17.157Z,101231.07
2017-08-19T21:12:44.249Z,101226.87
2017-08-19T21:15:10.693Z,101227.56
2017-08-19T21:17:37.204Z,101228.36
2017-08-19T21:20:05.231Z,101227.20
2017-08-19T21:22:31.610Z,101233.59
2017-08-19T21:24:58.087Z,101232.16
2017-08-19T21:27:30.595Z,101229.84
2017-08-19T21:29:57.446Z,101236.41
2017-08-19T21:32:24.201Z,101234.85
2017-08-19T21:34:51.016Z,101228.12
2017-08-19T21:37:22.627Z,101229.50
2017-08-19T21:39:52.155Z,101227.00
2017-08-19T21:42:18.580Z,101230.24
2017-08-19T21:44:45.143Z,101234.55
2017-08-19T21:47:12.040Z,101236.84
2017-08-19T21:49:44.950Z,101233.55
2017-08-19T21:52:18.902Z,101239.11
2017-08-19T21:54:45.303Z,101239.22
2017-08-19T21:57:14.753Z,101239.47
2017-08-19T21:59:42.530Z,101237.78
2017-08-19T22:02:10.109Z,101241.78
2017-08-19T22:04:37.067Z,101232.83
2017-08-19T22:07:03.552Z,101237.00
2017-08-19T22:09:33.331Z,101232.44
2017-08-19T22:12:04.883Z,101230.68
2017-08-19T22:14:35.480Z,101229.78
2017-08-19T22:17:05.384Z,101225.37
2017-08-19T22:19:31.768Z,101233.69
2017-08-19T22:21:58.924Z,101223.65
2017-08-19T22:24:30.671Z,101228.66
2017-08-19T22:26:57.123Z,101221.99
2017-08-19T22:29:23.556Z,101226.13
2017-08-19T22:31:50.011Z,101228.04
2017-08-19T22:34:16.646Z,101231.78
2017-08-19T22:36:43.992Z,101227.86
2017-08-19T22:39:15.667Z,101234.02
2017-08-19T22:41:42.434Z,101230.34
2017-08-19T22:44:10.096Z,101238.30
2017-08-19T22:46:36.692Z,101229.63
2017-08-19T22:49:03.784Z,101228.26
2017-08-19T22:51:30.143Z,101222.53
2017-08-19T22:53:56.822Z,101225.62
2017-08-19T22:56:28.390Z,101231.06
2017-08-19T22:58:54.851Z,101230.38
2017-08-19T23:01:21.379Z,101228.95
2017-08-19T23:03:49.080Z,101233.16
2017-08-19T23:06:15.541Z,101233.23
2017-08-19T23:08:47.121Z,101229.91
2017-08-19T23:11:26.225Z,101228.66
2017-08-19T23:13:58.168Z,101230.70
2017-08-19T23:16:29.872Z,101229.13
2017-08-19T23:18:57.762Z,101230.31
2017-08-19T23:21:27.979Z,101230.78
2017-08-19T23:23:57.446Z,101234.27
2017-08-19T23:26:29.191Z,101233.08
2017-08-19T23:29:02.700Z,101230.73
2017-08-19T23:31:35.791Z,101235.28
2017-08-19T23:34:07.888Z,101234.38
2017-08-19T23:36:34.436Z,101237.33
2017-08-19T23:39:00.967Z,101230.89
2017-08-19T23:41:28.610Z,101233.87
2017-08-19T23:43:55.006Z,101231.86
2017-08-19T23:46:22.283Z,101233.52
2017-08-19T23:48:51.942Z,101235.93
2017-08-19T23:51:19.274Z,101237.13
2017-08-19T23:53:51.589Z,101236.04
2017-08-19T23:56:24.900Z,101231.47
2017-08-19T23:58:56.838Z,101229.80
